• Join FlightAware (Why Join?)
  • Login
  • US Flag 
03:20AM EST


 

Airport Tracker/Info


-or-


 

Live Flight TrackerFlight Track Log ✈ N52944 ✈ 21-Dec-2013 ✈ KHRJ - KLKR

Flight Track Log - Related Links

Times and Time Zones

All times are in EST time to prevent confusion due to time zone crossing. See the N52944 flight status page for this flight to view local times or setup timezone preferences in your user account.

Time Position Orientation Groundspeed Altitude Reporting Facility
EST Latitude Longitude Course Direction KTS MPH feet Rate Location/Type
09:24PM 35.3303 -78.8987 256° West  Level Estimated
09:25PM 35.3239 -78.9332 257° West  Level FlightAware Approximate
09:26PM 35.3174 -78.9677 257° West  Level FlightAware Approximate
09:27PM 35.3109 -79.0023 257° West  Level FlightAware Approximate
09:28PM 35.3044 -79.0368 257° West  Level FlightAware Approximate
09:29PM 35.2979 -79.0713 257° West  Level FlightAware Approximate
09:30PM 35.2914 -79.1058 257° West  Level FlightAware Approximate
09:31PM 35.2848 -79.1403 257° West  Level FlightAware Approximate
09:32PM 35.2783 -79.1748 257° West  Level FlightAware Approximate
09:33PM 35.2718 -79.2093 257° West  Level FlightAware Approximate
09:34PM 35.2652 -79.2438 257° West  Level FlightAware Approximate
09:35PM 35.2586 -79.2783 257° West  Level FlightAware Approximate
09:36PM 35.2520 -79.3128 257° West  Level FlightAware Approximate
09:37PM 35.2454 -79.3473 257° West  Level FlightAware Approximate
09:38PM 35.2388 -79.3817 257° West  Level FlightAware Approximate
09:39PM 35.2322 -79.4162 257° West  Level FlightAware Approximate
09:40PM 35.2210 -79.4488 246° West  Level Estimated
09:41PM 35.2105 -79.4818 249° West  Level FlightAware Approximate
09:42PM 35.2000 -79.5147 249° West  Level FlightAware Approximate
09:43PM 35.1895 -79.5477 249° West  Level FlightAware Approximate
09:44PM 35.1789 -79.5807 249° West  Level FlightAware Approximate
09:45PM 35.1684 -79.6136 249° West  Level FlightAware Approximate
09:46PM 35.1579 -79.6466 249° West  Level FlightAware Approximate
09:47PM 35.1474 -79.6795 249° West  Level FlightAware Approximate
09:48PM 35.1368 -79.7124 249° West  Level FlightAware Approximate
09:49PM 35.1262 -79.7453 249° West  Level FlightAware Approximate
09:50PM 35.1157 -79.7782 249° West  Level FlightAware Approximate
09:51PM 35.1051 -79.8111 249° West  Level FlightAware Approximate
09:52PM 35.0945 -79.8440 249° West  Level FlightAware Approximate
09:53PM 35.0839 -79.8769 249° West  Level FlightAware Approximate
09:54PM 35.0722 -79.9092 245° Southwest  Level Estimated
09:55PM 35.0602 -79.9413 246° West  Level FlightAware Approximate
09:55PM 35.1169 -79.8492 245° Southwest 100 115 5,900  Level Atlanta Center
09:55PM 35.1111 -79.8622 241° Southwest 101 116 5,900 60 Level Atlanta Center
09:56PM 35.0482 -79.9735 246° West  Level FlightAware Approximate
09:57PM 35.0362 -80.0056 245° Southwest  Level FlightAware Approximate
09:57PM 35.0956 -79.9011 244° Southwest 99 114 6,000  Level Atlanta Center
09:58PM 35.0242 -80.0377 245° Southwest  Level FlightAware Approximate
09:58PM 35.0861 -79.9294 248° West 97 112 6,000  Level Atlanta Center
09:58PM 35.0744 -79.9528 239° Southwest 98 113 6,000  Level Atlanta Center
09:59PM 35.0121 -80.0698 245° Southwest  Level FlightAware Approximate
10:00PM 35.0001 -80.1019 245° Southwest  Level FlightAware Approximate
10:00PM 35.0631 -79.9864 248° West 100 115 6,000  Level Atlanta Center
10:01PM 35.0494 -80.0175 242° Southwest 102 117 6,000  Level Atlanta Center
10:02PM 35.0381 -80.0511 248° West 99 114 6,000  Level Atlanta Center
10:03PM 35.0264 -80.0819 245° Southwest 99 114 6,000 -120 Level Atlanta Center
10:04PM 35.0169 -80.1103 248° West 101 116 5,800 -180 Descending Atlanta Center
10:04PM 35.0033 -80.1389 240° Southwest 106 122 5,700 -300 Descending Atlanta Center
10:05PM 34.9897 -80.1750 245° Southwest 114 131 5,300 -480 Descending Atlanta Center
10:07PM 34.9744 -80.2136 244° Southwest 114 131 4,800 -540 Descending Atlanta Center
10:08PM 34.9628 -80.2497 248° West 103 119 4,200 -480 Descending Atlanta Center
10:09PM 34.9492 -80.2808 242° Southwest 100 115 3,900 -420 Descending Atlanta Center
10:10PM 34.9375 -80.3042 239° Southwest 96 110 3,500 -420 Descending Atlanta Center
10:11PM 34.9258 -80.3375 247° West 100 115 3,200 -240 Descending Atlanta Center
10:12PM 34.9103 -80.3736 242° Southwest 97 112 3,000 -180 Descending Atlanta Center
10:13PM 34.9067 -80.3942 258° West 86 99 2,900 -60 Descending Atlanta Center
10:14PM 34.9014 -80.4222 257° West 84 97 2,900  Level Atlanta Center
10:15PM 34.8900 -80.4633 251° West 83 96 3,000  Climbing Atlanta Center
10:16PM 34.8844 -80.4864 254° West 89 102 3,000  Level Atlanta Center
10:17PM 34.8789 -80.5144 256° West 90 104 3,100  Climbing Atlanta Center
10:18PM 34.8675 -80.5478 247° West 92 106 3,100 -60 Level Atlanta Center
10:19PM 34.8619 -80.5783 258° West 92 106 3,000 -240 Descending Atlanta Center
10:20PM 34.8561 -80.5939 245° Southwest 89 102 2,800 -360 Descending Atlanta Center
10:21PM 34.8403 -80.6197 233° Southwest 61 70 2,400 -240 Descending Atlanta Center
10:22PM 34.8364 -80.6325 250° West 61 70 2,400  Level Atlanta Center
10:23PM 34.8244 -80.6558 238° Southwest 60 69 2,500 -60 Climbing Atlanta Center
10:24PM 34.8167 -80.6714 239° Southwest 53 61 2,300 -240 Descending Atlanta Center
10:25PM 34.8086 -80.6869 238° Southwest 53 61 2,100 -120 Descending Atlanta Center
10:26PM 34.8006 -80.6997 232° Southwest 54 62 2,100  Level Atlanta Center
10:27PM 34.7928 -80.7128 234° Southwest 54 62 2,100  Level Atlanta Center
10:28PM 34.7869 -80.7281 245° Southwest 54 62 2,100  Level Atlanta Center
10:29PM 34.7789 -80.7411 233° Southwest 54 62 2,100  Level Atlanta Center
10:30PM 34.7711 -80.7592 242° Southwest 56 64 2,100 -180 Level Atlanta Center
10:31PM 34.7653 -80.7744 245° Southwest 54 62 1,800 -360 Descending Atlanta Center
10:32PM 34.7553 -80.7925 236° Southwest 59 68 1,400 -360 Descending Atlanta Center